createdAt,value
2023-05-09T00:00:17.260Z,12.23
2023-05-09T00:05:23.644Z,12.09
2023-05-09T00:10:29.690Z,11.91
2023-05-09T00:15:34.202Z,12.06
2023-05-09T00:20:41.109Z,12.10
2023-05-09T00:25:45.453Z,12.13
2023-05-09T00:30:50.726Z,11.96
2023-05-09T00:35:58.407Z,12.03
2023-05-09T00:41:02.800Z,11.98
2023-05-09T00:46:07.135Z,12.08
2023-05-09T00:51:13.095Z,11.95
2023-05-09T00:56:17.254Z,12.04
2023-05-09T01:01:21.833Z,11.94
2023-05-09T01:06:38.648Z,11.50
2023-05-09T01:11:50.235Z,11.33
2023-05-09T01:17:02.438Z,11.57
2023-05-09T01:22:10.560Z,11.52
2023-05-09T01:27:44.715Z,11.61
2023-05-09T01:32:53.808Z,11.45
2023-05-09T01:38:00.051Z,11.33
2023-05-09T01:43:08.946Z,11.39
2023-05-09T01:48:16.406Z,11.38
2023-05-09T01:53:23.278Z,11.44
2023-05-09T01:58:28.873Z,11.28
2023-05-09T02:03:38.585Z,11.19
2023-05-09T02:08:45.212Z,11.14
2023-05-09T02:13:50.965Z,11.20
2023-05-09T02:18:56.562Z,11.13
2023-05-09T02:24:03.367Z,11.24
2023-05-09T02:29:09.436Z,10.87
2023-05-09T02:34:16.191Z,11.00
2023-05-09T02:39:21.154Z,11.16
2023-05-09T02:44:26.058Z,11.06
2023-05-09T02:49:32.765Z,10.99
2023-05-09T02:54:39.425Z,11.07
2023-05-09T02:59:43.500Z,11.23
2023-05-09T03:04:48.887Z,10.96
2023-05-09T03:09:54.435Z,10.97
2023-05-09T03:15:00.661Z,10.94
2023-05-09T03:20:10.456Z,10.77
2023-05-09T03:25:15.994Z,10.89
2023-05-09T03:30:21.820Z,10.67
2023-05-09T03:35:29.159Z,10.70
2023-05-09T03:40:33.837Z,10.77
2023-05-09T03:45:45.103Z,10.58
2023-05-09T03:50:53.373Z,10.90
2023-05-09T03:55:59.040Z,10.71
2023-05-09T04:01:05.409Z,10.69
2023-05-09T04:06:11.573Z,10.52
2023-05-09T04:11:20.224Z,10.82
2023-05-09T04:16:26.589Z,11.08
2023-05-09T04:21:33.614Z,11.00
2023-05-09T04:26:40.121Z,10.94
2023-05-09T04:31:48.298Z,10.84
2023-05-09T04:36:54.953Z,10.92
2023-05-09T04:41:59.373Z,10.89
2023-05-09T04:47:03.880Z,11.11
2023-05-09T04:52:09.988Z,11.43
2023-05-09T04:57:18.585Z,11.39
2023-05-09T05:02:28.538Z,11.47
2023-05-09T05:07:34.325Z,11.16
2023-05-09T05:12:38.952Z,11.41
2023-05-09T05:17:48.570Z,11.68
2023-05-09T05:22:58.453Z,12.01
2023-05-09T05:28:02.732Z,12.31
2023-05-09T05:33:07.250Z,12.03
2023-05-09T05:38:14.054Z,11.98
2023-05-09T05:43:19.643Z,11.89
2023-05-09T05:48:24.098Z,11.89
2023-05-09T05:53:32.775Z,12.00
2023-05-09T05:58:37.658Z,12.07
2023-05-09T06:03:44.235Z,11.88
2023-05-09T06:08:51.093Z,11.82
2023-05-09T06:13:55.286Z,11.77
2023-05-09T06:18:59.523Z,11.71
2023-05-09T06:24:10.167Z,11.85
2023-05-09T06:29:18.723Z,11.68
2023-05-09T06:34:23.553Z,11.83
2023-05-09T06:39:32.664Z,11.97
2023-05-09T06:44:37.133Z,12.03
2023-05-09T06:49:41.377Z,11.86
2023-05-09T06:54:47.168Z,12.07
2023-05-09T06:59:51.902Z,12.20
2023-05-09T07:04:56.407Z,12.16
2023-05-09T07:10:11.496Z,12.16
2023-05-09T07:15:22.935Z,12.08
2023-05-09T07:20:36.107Z,12.01
2023-05-09T07:25:41.989Z,12.23
2023-05-09T07:30:46.987Z,11.95
2023-05-09T07:35:53.159Z,11.96
2023-05-09T07:40:58.860Z,12.27
2023-05-09T07:46:03.290Z,12.25
2023-05-09T07:51:08.107Z,12.15
2023-05-09T07:56:13.769Z,12.23
2023-05-09T08:01:18.267Z,12.28
2023-05-09T08:06:22.714Z,12.22
2023-05-09T08:11:28.413Z,12.20
2023-05-09T08:16:34.466Z,12.19
2023-05-09T08:21:38.570Z,11.84
2023-05-09T08:26:44.586Z,11.70
2023-05-09T08:31:49.062Z,11.31
2023-05-09T08:36:55.826Z,11.49
2023-05-09T08:42:04.636Z,11.48
2023-05-09T08:47:09.295Z,11.72
2023-05-09T08:52:13.432Z,11.67
2023-05-09T08:57:19.766Z,11.70
2023-05-09T09:02:24.997Z,11.78
2023-05-09T09:07:31.777Z,12.03
2023-05-09T09:12:39.127Z,11.90
2023-05-09T09:17:45.065Z,12.05
2023-05-09T09:22:52.983Z,12.15
2023-05-09T09:27:58.984Z,11.97
2023-05-09T09:33:04.012Z,11.81
2023-05-09T09:38:08.867Z,11.58
2023-05-09T09:43:16.028Z,11.74
2023-05-09T09:53:52.815Z,11.52
2023-05-09T09:59:12.563Z,11.51
2023-05-09T10:04:17.454Z,11.63
2023-05-09T10:09:24.454Z,11.56
2023-05-09T10:14:35.005Z,11.68
2023-05-09T10:19:43.692Z,11.47
2023-05-09T10:24:52.538Z,11.54
2023-05-09T10:30:04.831Z,11.37
2023-05-09T10:35:14.087Z,11.33
2023-05-09T10:40:20.741Z,11.11
2023-05-09T10:45:27.046Z,11.30
2023-05-09T10:50:33.712Z,11.07
2023-05-09T10:55:39.856Z,11.25
2023-05-09T11:00:50.220Z,10.93
2023-05-09T11:05:56.776Z,11.24
2023-05-09T11:11:08.479Z,11.24
2023-05-09T11:16:14.274Z,11.29
2023-05-09T11:26:49.667Z,11.35
2023-05-09T11:32:14.788Z,11.27
2023-05-09T11:37:21.054Z,11.22
2023-05-09T11:42:28.031Z,11.11
2023-05-09T11:47:33.831Z,11.22
2023-05-09T11:52:38.926Z,11.16
2023-05-09T11:57:44.474Z,11.11
2023-05-09T12:02:51.701Z,11.13
2023-05-09T12:07:55.901Z,11.08
2023-05-09T12:13:01.302Z,11.01
2023-05-09T12:18:08.921Z,10.97
2023-05-09T12:23:14.655Z,10.79
2023-05-09T12:28:19.664Z,10.57
2023-05-09T12:33:25.546Z,10.55
2023-05-09T12:38:30.747Z,10.55
2023-05-09T12:43:39.492Z,10.61
2023-05-09T12:48:48.769Z,10.63
2023-05-09T12:53:53.330Z,10.65
2023-05-09T12:58:57.825Z,10.47
2023-05-09T13:04:04.843Z,10.68
2023-05-09T13:09:09.747Z,10.86
2023-05-09T13:14:14.010Z,10.57
2023-05-09T13:19:19.855Z,10.48
2023-05-09T13:24:24.270Z,10.41
2023-05-09T13:29:28.436Z,10.36
2023-05-09T13:34:34.526Z,10.29
2023-05-09T13:39:38.984Z,10.38
2023-05-09T13:44:43.256Z,10.34
2023-05-09T13:49:48.801Z,10.55
2023-05-09T13:54:53.715Z,10.48
2023-05-09T14:00:07.050Z,10.70
2023-05-09T14:05:22.386Z,10.73
2023-05-09T14:10:27.540Z,10.73
2023-05-09T14:15:31.797Z,10.95
2023-05-09T14:20:38.134Z,11.33
2023-05-09T14:25:42.496Z,11.38
2023-05-09T14:30:47.653Z,11.27
2023-05-09T14:35:53.535Z,11.25
2023-05-09T14:41:02.653Z,11.43
2023-05-09T14:46:07.441Z,11.81
2023-05-09T14:51:13.080Z,11.62
2023-05-09T14:56:17.603Z,11.69
2023-05-09T15:01:21.649Z,11.62
2023-05-09T15:06:27.683Z,11.76
2023-05-09T15:11:43.732Z,11.94
2023-05-09T15:16:53.747Z,11.98
2023-05-09T15:21:59.671Z,11.91
2023-05-09T15:27:04.881Z,11.85
2023-05-09T15:32:09.417Z,11.79
2023-05-09T15:37:15.060Z,11.78
2023-05-09T15:42:19.428Z,11.65
2023-05-09T15:47:23.455Z,11.66
2023-05-09T15:52:32.324Z,11.69
2023-05-09T15:57:39.609Z,11.45
2023-05-09T16:02:44.544Z,11.64
2023-05-09T16:07:53.331Z,11.34
2023-05-09T16:12:58.483Z,11.33
2023-05-09T16:18:03.026Z,11.15
2023-05-09T16:23:08.901Z,11.06
2023-05-09T16:28:15.525Z,11.27
2023-05-09T16:33:23.951Z,11.29
2023-05-09T16:38:30.439Z,11.31
2023-05-09T16:43:38.020Z,11.32
2023-05-09T16:48:42.668Z,11.11
2023-05-09T16:53:48.675Z,11.16
2023-05-09T16:58:54.038Z,11.07
2023-05-09T17:04:04.687Z,11.03
2023-05-09T17:09:10.589Z,10.98
2023-05-09T17:14:14.810Z,10.85
2023-05-09T17:19:21.227Z,10.85
2023-05-09T17:24:27.497Z,10.89
2023-05-09T17:29:32.515Z,10.90
2023-05-09T17:34:38.028Z,10.71
2023-05-09T17:39:45.746Z,10.84
2023-05-09T17:44:51.296Z,10.59
2023-05-09T17:49:55.518Z,10.57
2023-05-09T17:55:02.424Z,10.54
2023-05-09T18:00:09.609Z,10.62
2023-05-09T18:05:25.063Z,10.79
2023-05-09T18:10:32.571Z,10.76
2023-05-09T18:15:38.590Z,10.41
2023-05-09T18:20:43.614Z,10.39
2023-05-09T18:25:50.086Z,10.17
2023-05-09T18:30:55.114Z,10.12
2023-05-09T18:36:00.462Z,10.39
2023-05-09T18:41:10.645Z,10.58
2023-05-09T18:46:17.622Z,10.72
2023-05-09T18:51:23.205Z,10.99
2023-05-09T18:56:28.904Z,10.86
2023-05-09T19:01:34.190Z,10.85
2023-05-09T19:06:38.512Z,10.73
2023-05-09T19:11:45.726Z,10.56
2023-05-09T19:16:52.108Z,10.68
2023-05-09T19:21:58.698Z,10.65
2023-05-09T19:27:07.248Z,10.58
2023-05-09T19:32:11.587Z,10.72
2023-05-09T19:37:15.728Z,10.43
2023-05-09T19:42:21.893Z,10.53
2023-05-09T19:47:26.354Z,10.61
2023-05-09T19:52:31.855Z,10.57
2023-05-09T19:57:38.657Z,10.58
2023-05-09T20:02:43.160Z,10.42
2023-05-09T20:07:47.306Z,10.47
2023-05-09T20:12:54.353Z,10.36
2023-05-09T20:17:58.755Z,10.43
2023-05-09T20:23:05.116Z,10.21
2023-05-09T20:28:11.913Z,10.26
2023-05-09T20:33:16.828Z,10.20
2023-05-09T20:38:21.236Z,9.96
2023-05-09T20:43:30.239Z,10.22
2023-05-09T20:48:34.698Z,10.29
2023-05-09T20:53:39.052Z,10.21
2023-05-09T20:58:44.756Z,10.27
2023-05-09T21:03:52.588Z,9.99
2023-05-09T21:08:57.509Z,9.95
2023-05-09T21:14:04.917Z,9.94
2023-05-09T21:19:11.535Z,9.85
2023-05-09T21:24:15.628Z,10.03
2023-05-09T21:29:22.689Z,10.18
2023-05-09T21:34:26.964Z,10.39
2023-05-09T21:39:33.606Z,10.43
2023-05-09T21:44:39.624Z,10.43
2023-05-09T21:49:44.377Z,10.37
2023-05-09T21:54:48.916Z,10.31
2023-05-09T21:59:56.758Z,10.19
2023-05-09T22:05:02.449Z,10.23
2023-05-09T22:10:10.246Z,10.10
2023-05-09T22:15:17.282Z,10.00
2023-05-09T22:20:22.725Z,10.21
2023-05-09T22:25:26.842Z,10.12
2023-05-09T22:30:34.499Z,10.13
2023-05-09T22:35:38.661Z,10.05
2023-05-09T22:40:42.813Z,10.14
2023-05-09T22:45:48.503Z,10.10
2023-05-09T22:50:52.799Z,10.08
2023-05-09T22:55:56.984Z,9.98
2023-05-09T23:01:02.460Z,9.95
2023-05-09T23:06:07.111Z,9.94
2023-05-09T23:11:12.503Z,9.91
2023-05-09T23:16:18.121Z,10.06
2023-05-09T23:21:22.573Z,9.93
2023-05-09T23:26:27.718Z,10.00
2023-05-09T23:31:33.431Z,10.04
2023-05-09T23:36:38.764Z,9.86
2023-05-09T23:41:43.765Z,9.94
2023-05-09T23:46:49.329Z,9.85
2023-05-09T23:51:53.359Z,9.95
2023-05-09T23:56:57.886Z,9.63
